createdAt,value
2018-01-25T00:00:38.127Z,12.37
2018-01-25T00:03:06.433Z,11.67
2018-01-25T00:05:33.960Z,13.20
2018-01-25T00:08:02.241Z,10.70
2018-01-25T00:10:30.531Z,8.83
2018-01-25T00:12:58.071Z,12.40
2018-01-25T00:15:26.335Z,5.77
2018-01-25T00:17:53.840Z,6.40
2018-01-25T00:20:21.399Z,5.23
2018-01-25T00:22:48.922Z,7.57
2018-01-25T00:25:17.222Z,6.70
2018-01-25T00:27:44.731Z,5.57
2018-01-25T00:30:12.243Z,5.83
2018-01-25T00:32:39.780Z,5.90
2018-01-25T00:35:08.059Z,7.20
2018-01-25T00:37:36.348Z,9.00
2018-01-25T00:40:03.851Z,10.83
2018-01-25T00:42:31.392Z,8.47
2018-01-25T00:44:58.907Z,5.33
2018-01-25T00:47:27.183Z,7.73
2018-01-25T00:49:55.499Z,4.97
2018-01-25T00:52:22.993Z,5.17
2018-01-25T00:54:50.532Z,10.20
2018-01-25T00:57:18.047Z,7.87
2018-01-25T00:59:46.319Z,6.67
2018-01-25T01:02:14.620Z,5.73
2018-01-25T01:04:42.121Z,8.30
2018-01-25T01:07:09.626Z,5.87
2018-01-25T01:09:37.151Z,6.03
2018-01-25T01:12:04.651Z,5.30
2018-01-25T01:14:32.171Z,5.70
2018-01-25T01:17:00.444Z,4.77
2018-01-25T01:19:28.064Z,4.40
2018-01-25T01:21:55.562Z,4.67
2018-01-25T01:24:23.065Z,5.13
2018-01-25T01:26:50.586Z,4.60
2018-01-25T01:29:18.905Z,9.03
2018-01-25T01:31:46.405Z,6.83
2018-01-25T01:34:13.924Z,4.80
2018-01-25T01:36:41.456Z,4.20
2018-01-25T01:39:08.976Z,5.43
2018-01-25T01:41:36.476Z,4.17
2018-01-25T01:44:04.009Z,6.40
2018-01-25T01:46:32.283Z,4.40
2018-01-25T01:48:59.782Z,4.00
2018-01-25T01:51:27.314Z,7.60
2018-01-25T01:53:55.580Z,4.17
2018-01-25T01:56:23.868Z,4.47
2018-01-25T01:58:52.171Z,4.60
2018-01-25T02:01:19.675Z,4.10
2018-01-25T02:03:47.239Z,4.63
2018-01-25T02:06:14.756Z,5.50
2018-01-25T02:08:42.307Z,4.93
2018-01-25T02:11:09.996Z,5.67
2018-01-25T02:13:37.508Z,6.40
2018-01-25T02:16:05.040Z,4.70
2018-01-25T02:18:32.543Z,3.80
2018-01-25T02:21:00.067Z,4.70
2018-01-25T02:23:28.384Z,3.87
2018-01-25T02:25:56.655Z,3.90
2018-01-25T02:28:24.171Z,4.57
2018-01-25T02:30:52.485Z,4.23
2018-01-25T02:33:20.017Z,4.33
2018-01-25T02:35:48.317Z,7.60
2018-01-25T02:38:15.833Z,4.10
2018-01-25T02:40:43.349Z,5.50
2018-01-25T02:43:10.870Z,6.47
2018-01-25T02:45:39.167Z,4.40
2018-01-25T02:48:06.679Z,4.43
2018-01-25T02:50:34.203Z,4.53
2018-01-25T02:53:01.726Z,5.30
2018-01-25T02:55:29.996Z,6.70
2018-01-25T02:57:57.551Z,4.60
2018-01-25T03:00:25.832Z,4.60
2018-01-25T03:02:54.094Z,5.07
2018-01-25T03:05:21.642Z,4.77
2018-01-25T03:07:49.155Z,5.67
2018-01-25T03:10:16.658Z,8.47
2018-01-25T03:12:44.184Z,5.17
2018-01-25T03:15:12.448Z,5.43
2018-01-25T03:17:40.742Z,4.33
2018-01-25T03:20:08.262Z,4.50
2018-01-25T03:22:36.527Z,4.47
2018-01-25T03:25:04.820Z,5.97
2018-01-25T03:27:32.361Z,4.23
2018-01-25T03:30:00.663Z,4.17
2018-01-25T03:32:28.174Z,6.90
2018-01-25T03:34:55.680Z,4.37
2018-01-25T03:37:23.199Z,4.30
2018-01-25T03:39:50.695Z,4.40
2018-01-25T03:42:18.211Z,4.27
2018-01-25T03:44:45.759Z,4.40
2018-01-25T03:47:13.297Z,5.63
2018-01-25T03:49:40.798Z,4.13
2018-01-25T03:52:08.307Z,4.00
2018-01-25T03:54:35.834Z,3.77
2018-01-25T03:57:04.103Z,3.63
2018-01-25T03:59:32.401Z,4.23
2018-01-25T04:01:59.915Z,4.30
2018-01-25T04:04:27.410Z,5.13
2018-01-25T04:06:54.951Z,5.67
2018-01-25T04:09:23.228Z,4.00
2018-01-25T04:11:51.496Z,3.97
2018-01-25T04:14:19.796Z,4.33
2018-01-25T04:16:47.304Z,3.77
2018-01-25T04:19:14.812Z,4.30
2018-01-25T04:21:42.348Z,4.10
2018-01-25T04:24:10.615Z,3.93
2018-01-25T04:26:38.112Z,4.53
2018-01-25T04:29:05.628Z,3.63
2018-01-25T04:31:33.147Z,4.03
2018-01-25T04:34:00.639Z,3.80
2018-01-25T04:36:28.167Z,3.60
2018-01-25T04:38:55.723Z,3.90
2018-01-25T04:41:23.235Z,3.43
2018-01-25T04:43:51.515Z,3.40
2018-01-25T04:46:19.811Z,4.97
2018-01-25T04:48:47.335Z,3.87
2018-01-25T04:51:14.847Z,5.00
2018-01-25T04:53:42.412Z,5.10
2018-01-25T04:56:09.958Z,5.73
2018-01-25T04:58:37.448Z,4.57
2018-01-25T05:01:04.960Z,4.33
2018-01-25T05:03:32.472Z,4.00
2018-01-25T05:05:59.992Z,4.20
2018-01-25T05:08:27.525Z,4.07
2018-01-25T05:10:55.031Z,4.40
2018-01-25T05:13:22.531Z,5.27
2018-01-25T05:15:50.845Z,3.53
2018-01-25T05:18:18.380Z,3.80
2018-01-25T05:20:46.644Z,3.60
2018-01-25T05:23:14.934Z,7.40
2018-01-25T05:25:42.440Z,3.90
2018-01-25T05:28:09.971Z,4.27
2018-01-25T05:30:37.486Z,4.63
2018-01-25T05:33:05.019Z,4.37
2018-01-25T05:35:32.747Z,4.00
2018-01-25T05:38:00.257Z,3.20
2018-01-25T05:40:27.774Z,3.70
2018-01-25T05:42:55.335Z,3.90
2018-01-25T05:45:22.866Z,3.90
2018-01-25T05:47:50.410Z,3.37
2018-01-25T05:50:18.688Z,3.80
2018-01-25T05:52:46.969Z,3.67
2018-01-25T05:55:15.271Z,6.30
2018-01-25T05:57:42.778Z,4.43
2018-01-25T06:00:10.316Z,4.90
2018-01-25T06:02:37.819Z,4.30
2018-01-25T06:05:06.084Z,6.07
2018-01-25T06:07:33.600Z,3.60
2018-01-25T06:10:01.132Z,5.13
2018-01-25T06:12:28.635Z,6.23
2018-01-25T06:14:56.165Z,6.30
2018-01-25T06:17:23.667Z,3.90
2018-01-25T06:19:51.191Z,6.13
2018-01-25T06:22:18.715Z,3.53
2018-01-25T06:24:46.249Z,3.83
2018-01-25T06:27:13.814Z,6.17
2018-01-25T06:29:42.155Z,5.70
2018-01-25T06:32:09.650Z,7.13
2018-01-25T06:34:37.919Z,4.50
2018-01-25T06:37:05.441Z,13.20
2018-01-25T06:39:32.950Z,4.00
2018-01-25T06:42:01.238Z,5.10
2018-01-25T06:44:28.762Z,6.17
2018-01-25T06:46:56.279Z,5.57
2018-01-25T06:49:23.790Z,5.50
2018-01-25T06:51:52.112Z,5.03
2018-01-25T06:54:19.643Z,7.00
2018-01-25T06:56:47.911Z,4.87
2018-01-25T06:59:16.206Z,4.23
2018-01-25T07:01:43.752Z,5.40
2018-01-25T07:04:12.036Z,5.30
2018-01-25T07:06:40.312Z,5.20
2018-01-25T07:09:07.872Z,4.87
2018-01-25T07:11:35.417Z,6.60
2018-01-25T07:14:09.610Z,5.83
2018-01-25T07:16:37.159Z,6.10
2018-01-25T07:19:04.653Z,4.63
2018-01-25T07:21:32.957Z,7.73
2018-01-25T07:24:01.233Z,6.50
2018-01-25T07:26:28.751Z,5.70
2018-01-25T07:28:56.288Z,4.83
2018-01-25T07:31:24.669Z,8.73
2018-01-25T07:33:52.181Z,9.80
2018-01-25T07:36:19.697Z,5.67
2018-01-25T07:38:47.243Z,5.40
2018-01-25T07:41:14.747Z,4.77
2018-01-25T07:43:42.277Z,7.07
2018-01-25T07:46:09.810Z,4.70
2018-01-25T07:48:37.318Z,7.17
2018-01-25T07:51:05.615Z,6.37
2018-01-25T07:53:33.182Z,6.33
2018-01-25T07:56:00.702Z,6.57
2018-01-25T07:58:28.975Z,8.63
2018-01-25T08:00:57.290Z,7.93
2018-01-25T08:03:24.821Z,5.93
2018-01-25T08:05:53.131Z,5.83
2018-01-25T08:08:20.632Z,7.87
2018-01-25T08:10:48.140Z,9.70
2018-01-25T08:13:21.272Z,6.80
2018-01-25T08:15:48.825Z,5.90
2018-01-25T08:18:16.326Z,5.77
2018-01-25T08:20:44.007Z,20.07
2018-01-25T08:23:11.504Z,7.83
2018-01-25T08:25:39.034Z,10.77
2018-01-25T08:28:06.539Z,9.07
2018-01-25T08:30:34.071Z,11.33
2018-01-25T08:33:01.587Z,4.90
2018-01-25T08:35:29.123Z,4.83
2018-01-25T08:37:57.392Z,6.67
2018-01-25T08:40:24.911Z,5.30
2018-01-25T08:42:52.445Z,6.90
2018-01-25T08:45:19.971Z,7.00
2018-01-25T08:47:48.243Z,6.33
2018-01-25T08:50:15.760Z,34.90
2018-01-25T08:52:43.284Z,17.20
2018-01-25T08:55:10.837Z,6.80
2018-01-25T08:57:39.098Z,8.10
2018-01-25T09:00:06.651Z,9.33
2018-01-25T09:02:34.964Z,6.33
2018-01-25T09:05:02.470Z,8.60
2018-01-25T09:07:30.163Z,7.40
2018-01-25T09:09:58.545Z,5.37
2018-01-25T09:12:26.117Z,6.03
2018-01-25T09:14:53.620Z,12.57
2018-01-25T09:17:21.174Z,17.40
2018-01-25T09:19:48.691Z,7.03
2018-01-25T09:22:16.188Z,6.53
2018-01-25T09:24:43.710Z,6.73
2018-01-25T09:27:11.238Z,7.17
2018-01-25T09:29:39.508Z,8.13
2018-01-25T09:32:07.022Z,6.37
2018-01-25T09:34:34.516Z,9.33
2018-01-25T09:37:02.024Z,6.50
2018-01-25T09:39:29.528Z,8.30
2018-01-25T09:41:57.054Z,9.17
2018-01-25T09:44:24.559Z,10.83
2018-01-25T09:46:52.098Z,9.37
2018-01-25T09:49:19.594Z,11.97
2018-01-25T09:51:47.859Z,6.00
2018-01-25T09:54:15.436Z,8.17
2018-01-25T09:56:42.912Z,6.80
2018-01-25T09:59:10.436Z,7.33
2018-01-25T10:01:38.752Z,7.40
2018-01-25T10:04:06.819Z,10.03
2018-01-25T10:06:34.326Z,8.13
2018-01-25T10:09:01.836Z,6.07
2018-01-25T10:11:29.368Z,6.60
2018-01-25T10:13:57.639Z,6.23
2018-01-25T10:16:25.916Z,6.90
2018-01-25T10:18:54.242Z,13.50
2018-01-25T10:21:21.783Z,11.93
2018-01-25T10:23:49.333Z,10.23
2018-01-25T10:26:16.878Z,7.90
2018-01-25T10:28:45.139Z,10.37
2018-01-25T10:31:12.647Z,9.47
2018-01-25T10:33:40.201Z,12.53
2018-01-25T10:36:07.721Z,7.83
2018-01-25T10:38:36.035Z,7.60
2018-01-25T10:41:03.543Z,7.13
2018-01-25T10:43:31.061Z,7.20
2018-01-25T10:45:58.593Z,9.63
2018-01-25T10:48:26.135Z,6.20
2018-01-25T10:50:53.627Z,8.17
2018-01-25T10:53:21.167Z,6.27
2018-01-25T10:55:48.674Z,7.50
2018-01-25T10:58:16.192Z,5.23
2018-01-25T11:03:45.591Z,8.73
2018-01-25T11:06:13.872Z,5.00
2018-01-25T11:08:42.155Z,6.00
2018-01-25T11:11:09.645Z,8.97
2018-01-25T11:13:37.163Z,5.87
2018-01-25T11:16:05.442Z,7.10
2018-01-25T11:18:32.966Z,5.80
2018-01-25T11:21:00.497Z,6.87
2018-01-25T11:23:28.012Z,5.57
2018-01-25T11:25:56.331Z,8.10
2018-01-25T11:28:23.864Z,5.53
2018-01-25T11:30:51.428Z,5.10
2018-01-25T11:33:18.952Z,5.60
2018-01-25T11:35:46.468Z,5.53
2018-01-25T11:38:13.995Z,6.97
2018-01-25T11:40:42.249Z,6.10
2018-01-25T11:43:09.780Z,5.10
2018-01-25T11:45:37.282Z,6.37
2018-01-25T11:48:05.538Z,5.70
2018-01-25T11:50:33.085Z,9.50
2018-01-25T11:53:00.607Z,5.73
2018-01-25T11:55:28.888Z,5.27
2018-01-25T11:57:56.423Z,6.93
2018-01-25T12:00:23.930Z,4.87
2018-01-25T12:02:51.883Z,11.80
2018-01-25T12:05:19.387Z,7.40
2018-01-25T12:07:47.667Z,9.70
2018-01-25T12:10:15.940Z,5.53
2018-01-25T12:12:44.268Z,12.03
2018-01-25T12:15:11.799Z,4.90
2018-01-25T12:17:39.326Z,6.90
2018-01-25T12:20:07.623Z,5.67
2018-01-25T12:22:35.888Z,7.20
2018-01-25T12:25:04.198Z,6.27
2018-01-25T12:27:31.713Z,6.40
2018-01-25T12:30:00.012Z,4.80
2018-01-25T12:32:27.597Z,7.37
2018-01-25T12:34:55.090Z,5.20
2018-01-25T12:37:22.613Z,6.83
2018-01-25T12:39:50.132Z,5.80
2018-01-25T12:42:18.428Z,6.47
2018-01-25T12:44:45.916Z,5.03
2018-01-25T12:47:13.408Z,6.10
2018-01-25T12:49:40.959Z,4.33
2018-01-25T12:52:08.490Z,4.63
2018-01-25T12:54:35.999Z,6.80
2018-01-25T12:57:04.289Z,5.83
2018-01-25T12:59:32.550Z,9.37
2018-01-25T13:02:00.837Z,6.60
2018-01-25T13:04:28.386Z,5.60
2018-01-25T13:06:56.660Z,8.33
2018-01-25T13:09:24.966Z,9.60
2018-01-25T13:11:52.482Z,5.93
2018-01-25T13:14:20.089Z,6.00
2018-01-25T13:16:47.629Z,8.47
2018-01-25T13:19:15.891Z,6.17
2018-01-25T13:21:44.200Z,12.50
2018-01-25T13:24:11.726Z,9.30
2018-01-25T13:26:40.020Z,6.93
2018-01-25T13:29:08.278Z,12.80
2018-01-25T13:31:36.573Z,7.03
2018-01-25T13:34:04.072Z,6.50
2018-01-25T13:36:31.605Z,6.73
2018-01-25T13:38:59.148Z,7.53
2018-01-25T13:41:26.653Z,10.97
2018-01-25T13:43:54.183Z,9.43
2018-01-25T13:46:21.699Z,8.70
2018-01-25T13:48:49.196Z,8.70
2018-01-25T13:51:16.720Z,7.20
2018-01-25T13:53:45.019Z,5.93
2018-01-25T13:56:13.258Z,5.97
2018-01-25T13:58:40.810Z,5.43
2018-01-25T14:01:08.335Z,5.23
2018-01-25T14:03:35.869Z,5.20
2018-01-25T14:06:04.132Z,5.43
2018-01-25T14:08:32.408Z,5.03
2018-01-25T14:11:00.671Z,5.53
2018-01-25T14:13:29.157Z,5.00
2018-01-25T14:15:57.575Z,10.33
2018-01-25T14:18:25.089Z,5.80
2018-01-25T14:20:52.640Z,7.70
2018-01-25T14:23:29.345Z,6.83
2018-01-25T14:25:57.624Z,6.70
2018-01-25T14:28:25.133Z,7.20
2018-01-25T14:30:54.975Z,7.87
2018-01-25T14:33:43.415Z,8.00
2018-01-25T14:39:07.312Z,8.00
2018-01-25T14:41:34.831Z,5.53
2018-01-25T14:44:02.347Z,8.90
2018-01-25T14:46:30.643Z,14.53
2018-01-25T14:48:58.170Z,22.47
2018-01-25T14:51:26.475Z,8.90
2018-01-25T14:53:54.024Z,7.60
2018-01-25T14:56:21.569Z,6.70
2018-01-25T14:58:49.855Z,9.17
2018-01-25T15:01:18.136Z,6.20
2018-01-25T15:03:46.404Z,31.37
2018-01-25T15:06:15.263Z,34.73
2018-01-25T15:08:42.810Z,23.53
2018-01-25T15:11:10.376Z,7.20
2018-01-25T15:13:37.899Z,20.17
2018-01-25T15:16:05.440Z,30.63
2018-01-25T15:18:33.755Z,12.17
2018-01-25T15:21:01.259Z,14.03
2018-01-25T15:23:29.591Z,10.63
2018-01-25T15:26:06.896Z,7.97
2018-01-25T15:28:34.431Z,7.00
2018-01-25T15:31:01.943Z,5.37
2018-01-25T15:33:30.284Z,10.70
2018-01-25T15:35:57.805Z,8.23
2018-01-25T15:38:25.352Z,7.87
2018-01-25T15:40:53.610Z,6.00
2018-01-25T15:43:21.896Z,7.40
2018-01-25T15:45:50.228Z,17.93
2018-01-25T15:48:17.816Z,8.57
2018-01-25T15:50:45.303Z,7.53
2018-01-25T15:53:13.102Z,7.00
2018-01-25T15:55:40.660Z,7.20
2018-01-25T15:58:08.178Z,5.57
2018-01-25T16:00:36.478Z,9.83
2018-01-25T16:03:05.072Z,6.20
2018-01-25T16:05:32.636Z,7.80
2018-01-25T16:08:00.155Z,6.97
2018-01-25T16:10:28.654Z,6.80
2018-01-25T16:12:56.181Z,8.63
2018-01-25T16:15:24.443Z,7.70
2018-01-25T16:17:51.962Z,7.47
2018-01-25T16:20:19.480Z,5.40
2018-01-25T16:22:47.789Z,6.23
2018-01-25T16:25:15.349Z,7.50
2018-01-25T16:27:42.849Z,7.40
2018-01-25T16:30:10.387Z,8.53
2018-01-25T16:32:37.903Z,8.50
2018-01-25T16:35:05.431Z,6.30
2018-01-25T16:37:32.928Z,7.03
2018-01-25T16:40:00.792Z,7.30
2018-01-25T16:42:28.308Z,13.83
2018-01-25T16:44:55.824Z,7.60
2018-01-25T16:47:23.383Z,8.70
2018-01-25T16:49:50.898Z,12.10
2018-01-25T16:52:19.226Z,6.83
2018-01-25T16:54:46.739Z,11.40
2018-01-25T16:57:15.024Z,6.87
2018-01-25T16:59:43.297Z,5.40
2018-01-25T17:02:11.609Z,6.33
2018-01-25T17:04:39.115Z,8.57
2018-01-25T17:07:06.651Z,12.30
2018-01-25T17:09:34.184Z,9.17
2018-01-25T17:12:01.723Z,8.67
2018-01-25T17:14:29.250Z,8.97
2018-01-25T17:16:56.760Z,9.83
2018-01-25T17:19:24.333Z,10.80
2018-01-25T17:21:52.564Z,18.53
2018-01-25T17:24:20.880Z,8.10
2018-01-25T17:26:48.422Z,13.50
2018-01-25T17:29:16.852Z,8.50
2018-01-25T17:31:44.365Z,10.50
2018-01-25T17:34:11.915Z,8.77
2018-01-25T17:36:39.419Z,7.03
2018-01-25T17:39:06.974Z,9.80
2018-01-25T17:41:34.470Z,10.20
2018-01-25T17:44:02.752Z,9.50
2018-01-25T17:46:31.084Z,9.80
2018-01-25T17:48:58.610Z,11.27
2018-01-25T17:51:26.142Z,15.17
2018-01-25T17:53:54.691Z,11.70
2018-01-25T17:56:22.210Z,12.00
2018-01-25T17:58:49.803Z,9.53
2018-01-25T18:01:17.310Z,9.23
2018-01-25T18:03:44.860Z,11.87
2018-01-25T18:06:13.190Z,9.57
2018-01-25T18:08:40.716Z,12.20
2018-01-25T18:11:09.005Z,11.93
2018-01-25T18:13:36.603Z,26.10
2018-01-25T18:16:04.119Z,12.13
2018-01-25T18:18:31.615Z,17.13
2018-01-25T18:20:59.151Z,15.07
2018-01-25T18:23:26.687Z,12.77
2018-01-25T18:25:54.221Z,13.87
2018-01-25T18:28:22.517Z,10.63
2018-01-25T18:30:50.073Z,11.53
2018-01-25T18:33:17.591Z,9.93
2018-01-25T18:35:45.155Z,15.83
2018-01-25T18:38:12.705Z,11.60
2018-01-25T18:40:40.206Z,11.47
2018-01-25T18:43:08.500Z,9.50
2018-01-25T18:45:36.574Z,8.83
2018-01-25T18:48:04.141Z,9.37
2018-01-25T18:50:31.702Z,11.83
2018-01-25T18:52:59.903Z,8.53
2018-01-25T18:55:27.710Z,12.07
2018-01-25T18:57:55.278Z,12.90
2018-01-25T19:00:22.813Z,7.70
2018-01-25T19:02:51.272Z,8.97
2018-01-25T19:05:18.796Z,8.20
2018-01-25T19:07:46.445Z,9.00
2018-01-25T19:10:14.603Z,16.73
2018-01-25T19:12:42.345Z,12.33
2018-01-25T19:15:11.171Z,12.27
2018-01-25T19:17:38.761Z,13.37
2018-01-25T19:20:06.547Z,7.77
2018-01-25T19:22:34.878Z,8.57
2018-01-25T19:25:02.415Z,14.20
2018-01-25T19:27:29.984Z,11.57
2018-01-25T19:29:58.133Z,9.30
2018-01-25T19:32:25.819Z,11.27
2018-01-25T19:34:53.352Z,9.57
2018-01-25T19:37:21.671Z,12.20
2018-01-25T19:39:49.616Z,8.37
2018-01-25T19:42:17.506Z,10.77
2018-01-25T19:44:45.070Z,7.63
2018-01-25T19:47:12.593Z,7.83
2018-01-25T19:49:40.996Z,9.97
2018-01-25T19:52:09.284Z,8.37
2018-01-25T19:54:37.124Z,7.70
2018-01-25T19:57:05.492Z,12.27
2018-01-25T19:59:33.819Z,7.43
2018-01-25T20:02:01.457Z,12.73
2018-01-25T20:04:29.658Z,7.90
2018-01-25T20:06:57.552Z,12.77
2018-01-25T20:09:32.625Z,11.73
2018-01-25T20:12:00.755Z,26.73
2018-01-25T20:14:28.962Z,12.13
2018-01-25T20:16:58.054Z,10.77
2018-01-25T20:19:26.688Z,9.60
2018-01-25T20:21:54.355Z,9.40
2018-01-25T20:24:22.101Z,8.53
2018-01-25T20:26:50.290Z,7.80
2018-01-25T20:29:18.343Z,8.73
2018-01-25T20:31:45.967Z,8.93
2018-01-25T20:34:14.262Z,11.27
2018-01-25T20:36:41.854Z,9.43
2018-01-25T20:39:09.829Z,10.10
2018-01-25T20:41:37.615Z,8.97
2018-01-25T20:44:05.191Z,9.90
2018-01-25T20:46:33.480Z,9.00
2018-01-25T20:49:01.956Z,9.13
2018-01-25T20:51:30.522Z,7.50
2018-01-25T20:53:59.183Z,10.67
2018-01-25T20:56:26.782Z,8.40
2018-01-25T20:58:54.347Z,10.87
2018-01-25T21:01:22.671Z,7.93
2018-01-25T21:03:50.778Z,9.93
2018-01-25T21:06:18.358Z,7.63
2018-01-25T21:08:46.671Z,10.53
2018-01-25T21:11:14.510Z,7.90
2018-01-25T21:13:42.143Z,9.40
2018-01-25T21:16:09.912Z,8.60
2018-01-25T21:18:37.493Z,10.77
2018-01-25T21:21:05.185Z,8.83
2018-01-25T21:23:32.912Z,12.50
2018-01-25T21:26:00.484Z,15.77
2018-01-25T21:28:28.246Z,22.27
2018-01-25T21:30:55.874Z,15.93
2018-01-25T21:33:23.615Z,11.13
2018-01-25T21:35:51.252Z,9.87
2018-01-25T21:38:19.343Z,9.67
2018-01-25T21:40:47.032Z,13.27
2018-01-25T21:43:15.006Z,20.80
2018-01-25T21:45:43.605Z,13.83
2018-01-25T21:48:12.088Z,10.37
2018-01-25T21:50:40.352Z,14.97
2018-01-25T21:53:09.481Z,14.40
2018-01-25T21:55:37.186Z,12.40
2018-01-25T21:58:04.799Z,13.80
2018-01-25T22:00:32.476Z,11.90
2018-01-25T22:03:00.753Z,14.53
2018-01-25T22:05:28.911Z,15.43
2018-01-25T22:07:56.697Z,16.90
2018-01-25T22:10:24.469Z,16.50
2018-01-25T22:12:52.332Z,16.23
2018-01-25T22:15:20.083Z,16.70
2018-01-25T22:17:47.622Z,14.90
2018-01-25T22:20:15.288Z,16.67
2018-01-25T22:22:43.149Z,26.20
2018-01-25T22:25:10.761Z,13.73
2018-01-25T22:27:38.367Z,19.00
2018-01-25T22:30:06.638Z,18.17
2018-01-25T22:32:35.164Z,18.27
2018-01-25T22:35:02.944Z,16.70
2018-01-25T22:37:31.401Z,24.47
2018-01-25T22:39:59.305Z,18.23
2018-01-25T22:42:27.284Z,20.33
2018-01-25T22:44:54.957Z,16.93
2018-01-25T22:47:23.223Z,31.87
2018-01-25T22:49:51.279Z,22.10
2018-01-25T22:52:18.875Z,24.47
2018-01-25T22:54:46.740Z,22.90
2018-01-25T22:57:14.532Z,15.90
2018-01-25T22:59:42.445Z,19.70
2018-01-25T23:02:10.861Z,20.83
2018-01-25T23:04:38.835Z,14.70
2018-01-25T23:07:06.419Z,14.73
2018-01-25T23:09:33.926Z,12.27
2018-01-25T23:12:02.232Z,16.30
2018-01-25T23:14:29.768Z,13.17
2018-01-25T23:16:58.065Z,11.60
2018-01-25T23:19:25.596Z,11.43
2018-01-25T23:21:53.122Z,12.27
2018-01-25T23:24:20.646Z,14.60
2018-01-25T23:26:48.207Z,12.30
2018-01-25T23:29:15.699Z,12.23
2018-01-25T23:31:43.206Z,12.50
2018-01-25T23:34:10.755Z,17.30
2018-01-25T23:36:39.033Z,15.63
2018-01-25T23:39:07.334Z,15.27
2018-01-25T23:41:34.828Z,13.17
2018-01-25T23:44:02.326Z,11.23
2018-01-25T23:46:30.987Z,12.30
2018-01-25T23:48:58.682Z,18.13
2018-01-25T23:51:26.252Z,12.67
2018-01-25T23:53:53.759Z,13.40
2018-01-25T23:56:21.264Z,14.90
2018-01-25T23:58:48.799Z,13.07
